This is the latest recevied weather packets stored in our database for station/object ZS1DFR-1. If no packets are shown the sender has not sent any weather packets the latest 10 day(s).
| Time | Temp. | Humidity | Pressure | Rain* | Wind** | Luminosity | Snow |
|---|---|---|---|---|---|---|---|
| 1778099016 | 15.56° C | 81% | 1019 hPa | 0 mm | - | - | - |
| 1778098116 | 15.56° C | 81% | 1019 hPa | 0 mm | - | - | - |
| 1778097216 | 16.11° C | 84% | 1018.9 hPa | 0 mm | - | - | - |
| 1778096316 | 16.11° C | 84% | 1018.9 hPa | 0 mm | - | - | - |
| 1778095416 | 16.11° C | 84% | 1018.5 hPa | 0 mm | - | - | - |
| 1778094516 | 16.11° C | 84% | 1018.5 hPa | 0 mm | - | - | - |
| 1778093615 | 16.67° C | 82% | 1018.4 hPa | 0 mm | - | - | - |
| 1778092716 | 16.67° C | 82% | 1018.4 hPa | 0 mm | - | - | - |
| 1778091816 | 16.67° C | 81% | 1018.2 hPa | 0 mm | - | - | - |
| 1778090916 | 16.67° C | 81% | 1018.2 hPa | 0 mm | - | - | - |
| 1778090016 | 16.67° C | 80% | 1017.9 hPa | 0 mm | - | - | - |
| 1778089116 | 16.67° C | 80% | 1017.9 hPa | 0 mm | - | - | - |
| 1778088216 | 17.22° C | 80% | 1017.5 hPa | 0 mm | - | - | - |
| 1778087315 | 17.22° C | 80% | 1017.5 hPa | 0 mm | - | - | - |
| 1778086415 | 17.78° C | 78% | 1017.4 hPa | 0 mm | - | - | - |
| 1778085516 | 17.78° C | 78% | 1017.4 hPa | 0 mm | - | - | - |
| 1778084615 | 17.78° C | 78% | 1017.3 hPa | 0 mm | - | - | - |
| 1778083715 | 17.78° C | 78% | 1017.3 hPa | 0 mm | - | - | - |
| 1778082815 | 18.89° C | 71% | 1017.2 hPa | 0 mm | - | - | - |
| 1778081915 | 18.89° C | 71% | 1017.2 hPa | 0 mm | - | - | - |
| 1778081015 | 19.44° C | 68% | 1016.9 hPa | 0 mm | - | - | - |
| 1778080115 | 19.44° C | 68% | 1016.9 hPa | 0 mm | - | - | - |
| 1778079215 | 19.44° C | 68% | 1016.6 hPa | 0 mm | - | - | - |
| 1778078315 | 19.44° C | 68% | 1016.6 hPa | 0 mm | - | - | - |
| 1778077415 | 20° C | 67% | 1016.4 hPa | 0 mm | - | - | - |
* Rain latest hour (hover to see other rain measurements)
** Current wind speed in m/s (hover to see current wind gust speed)